sensor_id;sensor_type;location;lat;lon;timestamp;temperature;humidity
25108;DHT22;13090;53.422;7.670;2022-12-07T00:02:15;6.50;89.10
25108;DHT22;13090;53.422;7.670;2022-12-07T00:07:17;6.40;89.10
25108;DHT22;13090;53.422;7.670;2022-12-07T00:12:25;6.40;89.20
25108;DHT22;13090;53.422;7.670;2022-12-07T00:17:27;6.30;89.50
25108;DHT22;13090;53.422;7.670;2022-12-07T00:22:30;6.30;89.10
25108;DHT22;13090;53.422;7.670;2022-12-07T00:27:33;6.20;89.10
25108;DHT22;13090;53.422;7.670;2022-12-07T00:32:35;6.20;89.20
25108;DHT22;13090;53.422;7.670;2022-12-07T00:37:38;6.10;89.20
25108;DHT22;13090;53.422;7.670;2022-12-07T00:42:41;6.00;89.30
25108;DHT22;13090;53.422;7.670;2022-12-07T00:47:43;6.00;89.40
25108;DHT22;13090;53.422;7.670;2022-12-07T00:52:46;6.00;89.30
25108;DHT22;13090;53.422;7.670;2022-12-07T00:57:49;5.90;89.40
25108;DHT22;13090;53.422;7.670;2022-12-07T01:02:52;5.90;89.50
25108;DHT22;13090;53.422;7.670;2022-12-07T01:07:54;5.80;89.50
25108;DHT22;13090;53.422;7.670;2022-12-07T01:12:58;5.80;89.60
25108;DHT22;13090;53.422;7.670;2022-12-07T01:18:00;5.70;89.60
25108;DHT22;13090;53.422;7.670;2022-12-07T01:23:03;5.70;89.70
25108;DHT22;13090;53.422;7.670;2022-12-07T01:28:06;5.70;90.00
25108;DHT22;13090;53.422;7.670;2022-12-07T01:33:08;5.70;90.00
25108;DHT22;13090;53.422;7.670;2022-12-07T01:38:11;5.80;90.10
25108;DHT22;13090;53.422;7.670;2022-12-07T01:43:17;5.90;90.20
25108;DHT22;13090;53.422;7.670;2022-12-07T01:48:24;5.90;90.20
25108;DHT22;13090;53.422;7.670;2022-12-07T01:53:28;6.00;90.20
25108;DHT22;13090;53.422;7.670;2022-12-07T01:58:32;6.00;90.10
25108;DHT22;13090;53.422;7.670;2022-12-07T02:03:39;6.00;90.00
25108;DHT22;13090;53.422;7.670;2022-12-07T02:08:41;6.10;90.00
25108;DHT22;13090;53.422;7.670;2022-12-07T02:13:46;6.00;89.90
25108;DHT22;13090;53.422;7.670;2022-12-07T02:19:11;6.00;90.00
25108;DHT22;13090;53.422;7.670;2022-12-07T02:24:36;6.10;90.40
25108;DHT22;13090;53.422;7.670;2022-12-07T02:29:50;6.20;90.50
25108;DHT22;13090;53.422;7.670;2022-12-07T02:35:00;6.30;90.40
25108;DHT22;13090;53.422;7.670;2022-12-07T02:40:11;6.40;90.40
25108;DHT22;13090;53.422;7.670;2022-12-07T02:45:18;6.40;90.30
25108;DHT22;13090;53.422;7.670;2022-12-07T02:50:22;6.40;90.30
25108;DHT22;13090;53.422;7.670;2022-12-07T02:55:29;6.50;90.30
25108;DHT22;13090;53.422;7.670;2022-12-07T03:00:41;6.50;90.40
25108;DHT22;13090;53.422;7.670;2022-12-07T03:06:08;6.60;90.40
25108;DHT22;13090;53.422;7.670;2022-12-07T03:11:16;6.70;90.50
25108;DHT22;13090;53.422;7.670;2022-12-07T03:16:27;6.70;90.20
25108;DHT22;13090;53.422;7.670;2022-12-07T03:21:33;6.60;90.10
25108;DHT22;13090;53.422;7.670;2022-12-07T03:26:40;6.60;90.00
25108;DHT22;13090;53.422;7.670;2022-12-07T03:31:45;6.50;90.00
25108;DHT22;13090;53.422;7.670;2022-12-07T03:36:54;6.40;90.20
25108;DHT22;13090;53.422;7.670;2022-12-07T03:41:58;6.30;90.00
25108;DHT22;13090;53.422;7.670;2022-12-07T03:47:05;6.20;90.20
25108;DHT22;13090;53.422;7.670;2022-12-07T03:52:16;6.30;90.40
25108;DHT22;13090;53.422;7.670;2022-12-07T03:57:21;6.30;90.30
25108;DHT22;13090;53.422;7.670;2022-12-07T04:02:27;6.30;90.30
25108;DHT22;13090;53.422;7.670;2022-12-07T04:07:30;6.20;90.40
25108;DHT22;13090;53.422;7.670;2022-12-07T04:12:35;6.30;90.50
25108;DHT22;13090;53.422;7.670;2022-12-07T04:17:39;6.30;90.40
25108;DHT22;13090;53.422;7.670;2022-12-07T04:22:41;6.30;90.30
25108;DHT22;13090;53.422;7.670;2022-12-07T04:27:43;6.20;90.40
25108;DHT22;13090;53.422;7.670;2022-12-07T04:32:47;6.30;90.50
25108;DHT22;13090;53.422;7.670;2022-12-07T04:37:49;6.30;90.60
25108;DHT22;13090;53.422;7.670;2022-12-07T04:42:51;6.30;90.50
25108;DHT22;13090;53.422;7.670;2022-12-07T04:47:55;6.40;90.50
25108;DHT22;13090;53.422;7.670;2022-12-07T04:52:57;6.30;90.40
25108;DHT22;13090;53.422;7.670;2022-12-07T04:57:59;6.30;90.30
25108;DHT22;13090;53.422;7.670;2022-12-07T05:03:03;6.20;90.30
25108;DHT22;13090;53.422;7.670;2022-12-07T05:08:05;6.20;90.30
25108;DHT22;13090;53.422;7.670;2022-12-07T05:13:07;6.20;90.40
25108;DHT22;13090;53.422;7.670;2022-12-07T05:18:11;6.20;90.60
25108;DHT22;13090;53.422;7.670;2022-12-07T05:23:13;6.30;90.70
25108;DHT22;13090;53.422;7.670;2022-12-07T05:28:15;6.40;90.60
25108;DHT22;13090;53.422;7.670;2022-12-07T05:33:19;6.50;90.50
25108;DHT22;13090;53.422;7.670;2022-12-07T05:38:21;6.50;90.40
25108;DHT22;13090;53.422;7.670;2022-12-07T05:43:23;6.50;90.40
25108;DHT22;13090;53.422;7.670;2022-12-07T05:48:27;6.50;90.40
25108;DHT22;13090;53.422;7.670;2022-12-07T05:53:29;6.50;90.40
25108;DHT22;13090;53.422;7.670;2022-12-07T05:58:31;6.50;90.40
25108;DHT22;13090;53.422;7.670;2022-12-07T06:03:35;6.50;90.40
25108;DHT22;13090;53.422;7.670;2022-12-07T06:08:37;6.60;90.50
25108;DHT22;13090;53.422;7.670;2022-12-07T06:13:39;6.60;90.70
25108;DHT22;13090;53.422;7.670;2022-12-07T06:18:52;6.60;90.40
25108;DHT22;13090;53.422;7.670;2022-12-07T06:23:54;6.50;90.30
25108;DHT22;13090;53.422;7.670;2022-12-07T06:28:57;6.50;90.30
25108;DHT22;13090;53.422;7.670;2022-12-07T06:34:01;6.40;90.20
25108;DHT22;13090;53.422;7.670;2022-12-07T06:39:04;6.40;90.10
25108;DHT22;13090;53.422;7.670;2022-12-07T06:44:07;6.30;90.10
25108;DHT22;13090;53.422;7.670;2022-12-07T06:49:11;6.20;90.10
25108;DHT22;13090;53.422;7.670;2022-12-07T06:54:14;6.00;90.10
25108;DHT22;13090;53.422;7.670;2022-12-07T06:59:16;5.90;90.10
25108;DHT22;13090;53.422;7.670;2022-12-07T07:04:20;5.80;90.20
25108;DHT22;13090;53.422;7.670;2022-12-07T07:09:22;5.70;90.20
25108;DHT22;13090;53.422;7.670;2022-12-07T07:14:24;5.70;90.30
25108;DHT22;13090;53.422;7.670;2022-12-07T07:19:28;5.60;90.30
25108;DHT22;13090;53.422;7.670;2022-12-07T07:24:30;5.50;90.40
25108;DHT22;13090;53.422;7.670;2022-12-07T07:29:32;5.50;90.40
25108;DHT22;13090;53.422;7.670;2022-12-07T07:34:36;5.40;90.40
25108;DHT22;13090;53.422;7.670;2022-12-07T07:39:38;5.40;90.50
25108;DHT22;13090;53.422;7.670;2022-12-07T07:44:40;5.40;90.50
25108;DHT22;13090;53.422;7.670;2022-12-07T07:49:44;5.40;90.50
25108;DHT22;13090;53.422;7.670;2022-12-07T07:54:49;5.40;90.60
25108;DHT22;13090;53.422;7.670;2022-12-07T07:59:51;5.40;90.90
25108;DHT22;13090;53.422;7.670;2022-12-07T08:04:55;5.60;91.10
25108;DHT22;13090;53.422;7.670;2022-12-07T08:09:57;5.80;90.90
25108;DHT22;13090;53.422;7.670;2022-12-07T08:15:00;5.90;90.80
25108;DHT22;13090;53.422;7.670;2022-12-07T08:20:05;6.10;90.90
25108;DHT22;13090;53.422;7.670;2022-12-07T08:25:08;6.20;90.70
25108;DHT22;13090;53.422;7.670;2022-12-07T08:30:10;6.30;90.50
25108;DHT22;13090;53.422;7.670;2022-12-07T08:35:14;6.30;90.40
25108;DHT22;13090;53.422;7.670;2022-12-07T08:40:17;6.40;90.40
25108;DHT22;13090;53.422;7.670;2022-12-07T08:45:20;6.30;90.40
25108;DHT22;13090;53.422;7.670;2022-12-07T08:50:29;6.40;90.50
25108;DHT22;13090;53.422;7.670;2022-12-07T08:55:34;6.40;90.50
25108;DHT22;13090;53.422;7.670;2022-12-07T09:00:36;6.50;90.50
25108;DHT22;13090;53.422;7.670;2022-12-07T09:05:40;6.60;90.60
25108;DHT22;13090;53.422;7.670;2022-12-07T09:10:42;6.80;90.60
25108;DHT22;13090;53.422;7.670;2022-12-07T09:15:44;6.90;90.40
25108;DHT22;13090;53.422;7.670;2022-12-07T09:20:48;7.20;91.00
25108;DHT22;13090;53.422;7.670;2022-12-07T09:25:50;7.70;91.60
25108;DHT22;13090;53.422;7.670;2022-12-07T09:30:53;8.30;91.10
25108;DHT22;13090;53.422;7.670;2022-12-07T09:36:16;8.80;91.20
25108;DHT22;13090;53.422;7.670;2022-12-07T09:41:19;9.50;91.00
25108;DHT22;13090;53.422;7.670;2022-12-07T09:46:22;9.90;90.20
25108;DHT22;13090;53.422;7.670;2022-12-07T09:51:26;10.00;89.30
25108;DHT22;13090;53.422;7.670;2022-12-07T09:56:29;10.10;88.60
25108;DHT22;13090;53.422;7.670;2022-12-07T10:01:33;10.10;88.30
25108;DHT22;13090;53.422;7.670;2022-12-07T10:06:37;10.00;88.30
25108;DHT22;13090;53.422;7.670;2022-12-07T10:12:02;10.10;88.50
25108;DHT22;13090;53.422;7.670;2022-12-07T10:17:30;10.20;87.60
25108;DHT22;13090;53.422;7.670;2022-12-07T10:22:34;10.20;87.50
25108;DHT22;13090;53.422;7.670;2022-12-07T10:27:36;10.20;87.80
25108;DHT22;13090;53.422;7.670;2022-12-07T10:32:38;10.20;87.60
25108;DHT22;13090;53.422;7.670;2022-12-07T10:37:42;10.10;87.50
25108;DHT22;13090;53.422;7.670;2022-12-07T10:43:01;10.00;87.40
25108;DHT22;13090;53.422;7.670;2022-12-07T10:48:10;9.80;87.00
25108;DHT22;13090;53.422;7.670;2022-12-07T10:53:30;9.80;87.40
25108;DHT22;13090;53.422;7.670;2022-12-07T10:58:49;9.80;87.70
25108;DHT22;13090;53.422;7.670;2022-12-07T11:04:16;9.80;87.80
25108;DHT22;13090;53.422;7.670;2022-12-07T11:09:43;9.70;88.00
25108;DHT22;13090;53.422;7.670;2022-12-07T11:15:15;9.80;88.40
25108;DHT22;13090;53.422;7.670;2022-12-07T11:20:34;10.10;89.20
25108;DHT22;13090;53.422;7.670;2022-12-07T11:25:49;10.40;88.90
25108;DHT22;13090;53.422;7.670;2022-12-07T11:31:00;10.70;88.30
25108;DHT22;13090;53.422;7.670;2022-12-07T11:36:14;11.00;88.50
25108;DHT22;13090;53.422;7.670;2022-12-07T11:41:24;11.50;88.80
25108;DHT22;13090;53.422;7.670;2022-12-07T11:46:46;11.90;87.90
25108;DHT22;13090;53.422;7.670;2022-12-07T11:51:51;12.20;84.80
25108;DHT22;13090;53.422;7.670;2022-12-07T11:57:01;12.30;85.30
25108;DHT22;13090;53.422;7.670;2022-12-07T12:02:13;12.20;84.30
25108;DHT22;13090;53.422;7.670;2022-12-07T12:07:19;12.00;83.70
25108;DHT22;13090;53.422;7.670;2022-12-07T12:23:57;11.50;84.10
25108;DHT22;13090;53.422;7.670;2022-12-07T12:29:03;11.40;84.60
25108;DHT22;13090;53.422;7.670;2022-12-07T12:34:32;11.40;85.30
25108;DHT22;13090;53.422;7.670;2022-12-07T12:39:35;11.50;84.30
25108;DHT22;13090;53.422;7.670;2022-12-07T12:50:26;11.40;83.60
25108;DHT22;13090;53.422;7.670;2022-12-07T13:01:41;11.20;83.70
25108;DHT22;13090;53.422;7.670;2022-12-07T13:06:46;11.20;84.80
25108;DHT22;13090;53.422;7.670;2022-12-07T13:11:50;11.30;85.70
25108;DHT22;13090;53.422;7.670;2022-12-07T13:16:58;11.40;85.30
25108;DHT22;13090;53.422;7.670;2022-12-07T13:22:02;11.50;86.00
25108;DHT22;13090;53.422;7.670;2022-12-07T13:27:08;11.80;85.80
25108;DHT22;13090;53.422;7.670;2022-12-07T13:32:23;11.90;84.40
25108;DHT22;13090;53.422;7.670;2022-12-07T13:37:28;11.90;83.30
25108;DHT22;13090;53.422;7.670;2022-12-07T13:42:39;11.80;83.40
25108;DHT22;13090;53.422;7.670;2022-12-07T13:47:43;11.70;83.90
25108;DHT22;13090;53.422;7.670;2022-12-07T13:52:50;11.70;83.90
25108;DHT22;13090;53.422;7.670;2022-12-07T13:57:56;11.70;84.10
25108;DHT22;13090;53.422;7.670;2022-12-07T14:03:00;11.70;83.60
25108;DHT22;13090;53.422;7.670;2022-12-07T14:08:20;11.60;82.70
25108;DHT22;13090;53.422;7.670;2022-12-07T14:13:30;11.40;82.20
25108;DHT22;13090;53.422;7.670;2022-12-07T14:18:37;11.10;81.80
25108;DHT22;13090;53.422;7.670;2022-12-07T14:23:42;10.80;81.70
25108;DHT22;13090;53.422;7.670;2022-12-07T14:28:45;10.60;82.10
25108;DHT22;13090;53.422;7.670;2022-12-07T14:33:47;10.30;82.40
25108;DHT22;13090;53.422;7.670;2022-12-07T14:38:50;10.10;82.70
25108;DHT22;13090;53.422;7.670;2022-12-07T14:43:52;9.80;82.90
25108;DHT22;13090;53.422;7.670;2022-12-07T14:49:15;9.60;83.40
25108;DHT22;13090;53.422;7.670;2022-12-07T14:54:34;9.40;83.80
25108;DHT22;13090;53.422;7.670;2022-12-07T14:59:37;9.30;84.10
25108;DHT22;13090;53.422;7.670;2022-12-07T15:04:46;9.20;84.00
25108;DHT22;13090;53.422;7.670;2022-12-07T15:09:49;9.10;83.90
25108;DHT22;13090;53.422;7.670;2022-12-07T15:14:52;8.90;83.90
25108;DHT22;13090;53.422;7.670;2022-12-07T15:19:54;8.80;84.20
25108;DHT22;13090;53.422;7.670;2022-12-07T15:24:58;8.60;84.50
25108;DHT22;13090;53.422;7.670;2022-12-07T15:30:00;8.50;84.60
25108;DHT22;13090;53.422;7.670;2022-12-07T15:35:02;8.40;85.60
25108;DHT22;13090;53.422;7.670;2022-12-07T15:40:08;8.30;85.20
25108;DHT22;13090;53.422;7.670;2022-12-07T15:45:11;8.40;85.50
25108;DHT22;13090;53.422;7.670;2022-12-07T15:50:15;8.30;85.50
25108;DHT22;13090;53.422;7.670;2022-12-07T15:55:19;8.30;85.40
25108;DHT22;13090;53.422;7.670;2022-12-07T16:00:21;8.20;85.40
25108;DHT22;13090;53.422;7.670;2022-12-07T16:05:23;8.10;85.30
25108;DHT22;13090;53.422;7.670;2022-12-07T16:10:27;8.00;85.30
25108;DHT22;13090;53.422;7.670;2022-12-07T16:15:29;7.90;85.10
25108;DHT22;13090;53.422;7.670;2022-12-07T16:20:31;7.70;84.90
25108;DHT22;13090;53.422;7.670;2022-12-07T16:25:34;7.60;85.00
25108;DHT22;13090;53.422;7.670;2022-12-07T16:30:37;7.40;85.30
25108;DHT22;13090;53.422;7.670;2022-12-07T16:35:39;7.20;85.30
25108;DHT22;13090;53.422;7.670;2022-12-07T16:40:43;7.10;85.60
25108;DHT22;13090;53.422;7.670;2022-12-07T16:46:06;7.00;87.10
25108;DHT22;13090;53.422;7.670;2022-12-07T16:51:29;6.90;86.70
25108;DHT22;13090;53.422;7.670;2022-12-07T16:56:55;6.90;86.90
25108;DHT22;13090;53.422;7.670;2022-12-07T17:02:18;6.90;87.00
25108;DHT22;13090;53.422;7.670;2022-12-07T17:07:40;6.90;87.00
25108;DHT22;13090;53.422;7.670;2022-12-07T17:12:44;6.90;87.10
25108;DHT22;13090;53.422;7.670;2022-12-07T17:17:51;6.90;87.10
25108;DHT22;13090;53.422;7.670;2022-12-07T17:22:53;6.80;87.10
25108;DHT22;13090;53.422;7.670;2022-12-07T17:27:57;6.80;87.10
25108;DHT22;13090;53.422;7.670;2022-12-07T17:33:00;6.70;87.10
25108;DHT22;13090;53.422;7.670;2022-12-07T17:38:02;6.70;87.10
25108;DHT22;13090;53.422;7.670;2022-12-07T17:43:06;6.70;87.30
25108;DHT22;13090;53.422;7.670;2022-12-07T17:48:08;6.60;87.30
25108;DHT22;13090;53.422;7.670;2022-12-07T17:53:11;6.60;87.40
25108;DHT22;13090;53.422;7.670;2022-12-07T17:58:15;6.60;87.40
25108;DHT22;13090;53.422;7.670;2022-12-07T18:03:17;6.60;87.50
25108;DHT22;13090;53.422;7.670;2022-12-07T18:08:19;6.60;87.60
25108;DHT22;13090;53.422;7.670;2022-12-07T18:13:23;6.70;87.80
25108;DHT22;13090;53.422;7.670;2022-12-07T18:18:25;6.70;87.80
25108;DHT22;13090;53.422;7.670;2022-12-07T18:23:27;6.80;87.80
25108;DHT22;13090;53.422;7.670;2022-12-07T18:28:31;6.80;87.70
25108;DHT22;13090;53.422;7.670;2022-12-07T18:33:33;6.90;87.80
25108;DHT22;13090;53.422;7.670;2022-12-07T18:38:36;6.80;87.70
25108;DHT22;13090;53.422;7.670;2022-12-07T18:43:39;6.80;87.70
25108;DHT22;13090;53.422;7.670;2022-12-07T18:48:42;6.80;87.60
25108;DHT22;13090;53.422;7.670;2022-12-07T18:53:44;6.80;87.50
25108;DHT22;13090;53.422;7.670;2022-12-07T18:58:50;6.70;87.40
25108;DHT22;13090;53.422;7.670;2022-12-07T19:03:53;6.60;87.40
25108;DHT22;13090;53.422;7.670;2022-12-07T19:08:57;6.60;87.60
25108;DHT22;13090;53.422;7.670;2022-12-07T19:14:01;6.50;87.70
25108;DHT22;13090;53.422;7.670;2022-12-07T19:19:03;6.50;87.90
25108;DHT22;13090;53.422;7.670;2022-12-07T19:24:06;6.40;87.90
25108;DHT22;13090;53.422;7.670;2022-12-07T19:29:10;6.40;88.00
25108;DHT22;13090;53.422;7.670;2022-12-07T19:34:13;6.40;88.10
25108;DHT22;13090;53.422;7.670;2022-12-07T19:39:16;6.40;88.20
25108;DHT22;13090;53.422;7.670;2022-12-07T19:44:20;6.40;88.30
25108;DHT22;13090;53.422;7.670;2022-12-07T19:49:25;6.30;88.20
25108;DHT22;13090;53.422;7.670;2022-12-07T19:54:30;6.30;88.20
25108;DHT22;13090;53.422;7.670;2022-12-07T19:59:34;6.20;88.20
25108;DHT22;13090;53.422;7.670;2022-12-07T20:04:37;6.20;88.20
25108;DHT22;13090;53.422;7.670;2022-12-07T20:09:41;6.10;88.20
25108;DHT22;13090;53.422;7.670;2022-12-07T20:14:49;6.00;88.20
25108;DHT22;13090;53.422;7.670;2022-12-07T20:19:53;6.00;88.20
25108;DHT22;13090;53.422;7.670;2022-12-07T20:24:55;5.80;88.10
25108;DHT22;13090;53.422;7.670;2022-12-07T20:29:59;5.70;88.00
25108;DHT22;13090;53.422;7.670;2022-12-07T20:35:01;5.60;88.00
25108;DHT22;13090;53.422;7.670;2022-12-07T20:40:05;5.50;88.10
25108;DHT22;13090;53.422;7.670;2022-12-07T20:45:09;5.40;88.20
25108;DHT22;13090;53.422;7.670;2022-12-07T20:50:12;5.40;88.40
25108;DHT22;13090;53.422;7.670;2022-12-07T20:55:21;5.30;88.80
25108;DHT22;13090;53.422;7.670;2022-12-07T21:00:25;5.30;89.20
25108;DHT22;13090;53.422;7.670;2022-12-07T21:05:27;5.30;89.40
25108;DHT22;13090;53.422;7.670;2022-12-07T21:10:29;5.40;89.50
25108;DHT22;13090;53.422;7.670;2022-12-07T21:15:33;5.50;89.70
25108;DHT22;13090;53.422;7.670;2022-12-07T21:20:35;5.50;89.70
25108;DHT22;13090;53.422;7.670;2022-12-07T21:25:37;5.60;89.70
25108;DHT22;13090;53.422;7.670;2022-12-07T21:30:41;5.70;89.80
25108;DHT22;13090;53.422;7.670;2022-12-07T21:36:04;5.70;89.60
25108;DHT22;13090;53.422;7.670;2022-12-07T21:41:12;5.70;89.50
25108;DHT22;13090;53.422;7.670;2022-12-07T21:46:16;5.70;89.50
25108;DHT22;13090;53.422;7.670;2022-12-07T21:51:21;5.70;90.20
25108;DHT22;13090;53.422;7.670;2022-12-07T21:56:25;5.60;89.10
25108;DHT22;13090;53.422;7.670;2022-12-07T22:01:30;5.60;89.30
25108;DHT22;13090;53.422;7.670;2022-12-07T22:06:34;5.50;89.40
25108;DHT22;13090;53.422;7.670;2022-12-07T22:11:37;5.50;89.50
25108;DHT22;13090;53.422;7.670;2022-12-07T22:16:40;5.50;89.60
25108;DHT22;13090;53.422;7.670;2022-12-07T22:21:42;5.40;89.50
25108;DHT22;13090;53.422;7.670;2022-12-07T22:26:45;5.40;89.50
25108;DHT22;13090;53.422;7.670;2022-12-07T22:31:48;5.30;89.50
25108;DHT22;13090;53.422;7.670;2022-12-07T22:36:55;5.30;89.50
25108;DHT22;13090;53.422;7.670;2022-12-07T22:41:57;5.20;89.50
25108;DHT22;13090;53.422;7.670;2022-12-07T22:47:00;5.10;89.50
25108;DHT22;13090;53.422;7.670;2022-12-07T22:52:03;5.10;89.80
25108;DHT22;13090;53.422;7.670;2022-12-07T22:57:05;5.10;90.00
25108;DHT22;13090;53.422;7.670;2022-12-07T23:02:09;5.10;90.10
25108;DHT22;13090;53.422;7.670;2022-12-07T23:07:11;5.10;90.20
25108;DHT22;13090;53.422;7.670;2022-12-07T23:12:13;5.10;90.20
25108;DHT22;13090;53.422;7.670;2022-12-07T23:17:17;5.20;90.20
25108;DHT22;13090;53.422;7.670;2022-12-07T23:22:19;5.20;90.20
25108;DHT22;13090;53.422;7.670;2022-12-07T23:27:21;5.30;90.20
25108;DHT22;13090;53.422;7.670;2022-12-07T23:32:25;5.30;90.20
25108;DHT22;13090;53.422;7.670;2022-12-07T23:37:27;5.30;90.10
25108;DHT22;13090;53.422;7.670;2022-12-07T23:42:29;5.30;90.10
25108;DHT22;13090;53.422;7.670;2022-12-07T23:47:33;5.20;90.00
25108;DHT22;13090;53.422;7.670;2022-12-07T23:52:35;5.20;90.00
25108;DHT22;13090;53.422;7.670;2022-12-07T23:57:37;5.20;90.00
